This is the latest recevied weather packets stored in our database for station/object N0YWB. If no packets are shown the sender has not sent any weather packets the latest 10 day(s).
| Time | Temp. | Humidity | Pressure | Rain* | Wind** | Luminosity | Snow |
|---|---|---|---|---|---|---|---|
| 1777674318 | 13.33° C | 56% | 1019.3 hPa | 0 mm | - | - | - |
| 1777670732 | 12.78° C | 62% | 1019.4 hPa | 0 mm | - | - | - |
| 1777668922 | 12.78° C | 61% | 1019.5 hPa | 0 mm | - | - | - |
| 1777667727 | 15° C | 56% | 1019.2 hPa | 0 mm | - | - | - |
| 1777664139 | 11.67° C | 63% | 1019.7 hPa | 0 mm | - | - | - |
| 1777659925 | 11.67° C | 61% | 1019.4 hPa | 0 mm | - | - | - |
| 1777656317 | 15° C | 60% | 1019.6 hPa | 0 mm | - | - | - |
| 1777653338 | 12.78° C | 63% | 1019.9 hPa | 0 mm | - | - | - |
| 1777649728 | 11.11° C | 66% | 1019.9 hPa | 0 mm | - | - | - |
| 1777648533 | 11.11° C | 65% | 1020 hPa | 0 mm | - | - | - |
| 1777647320 | 9.44° C | 70% | 1020 hPa | 0 mm | - | - | - |
| 1777646723 | 9.44° C | 72% | 1020 hPa | 0 mm | - | - | - |
| 1777645548 | 8.33° C | 75% | 1020.1 hPa | 0 mm | - | - | - |
| 1777643120 | 8.33° C | 77% | 1020 hPa | 0 mm | - | - | - |
| 1777637746 | 3.89° C | 95% | 1019.9 hPa | 0 mm | - | - | - |
| 1777637149 | 2.78° C | 99% | 1019.9 hPa | 0 mm | - | - | - |
| 1777635916 | 2.78° C | 99% | 1019.9 hPa | 0 mm | - | - | - |
| 1777635338 | 2.22° C | 99% | 1019.7 hPa | 0 mm | - | - | - |
| 1777633526 | 1.67° C | 99% | 1019.8 hPa | 0 mm | - | - | - |
| 1777630516 | 1.67° C | 99% | 1019.6 hPa | 0 mm | - | - | - |
| 1777628126 | 1.67° C | 99% | 1019.7 hPa | 0 mm | - | - | - |
| 1777626317 | 1.11° C | 99% | 1019.6 hPa | 0 mm | - | - | - |
| 1777625122 | 1.11° C | 99% | 1019.6 hPa | 0 mm | - | - | - |
| 1777619125 | 0.56° C | 94% | 1019.7 hPa | 0 mm | - | - | - |
| 1777618527 | 1.11° C | 91% | 1019.7 hPa | 0 mm | - | - | - |
* Rain latest hour (hover to see other rain measurements)
** Current wind speed in m/s (hover to see current wind gust speed)